Time;durP1;ratioP1;P1;durP2;ratioP2;P2;SDS_P1;SDS_P2;PMS_P1;PMS_P2;Temp;Humidity;BMP_temperature;BMP_pressure;BME280_temperature;BME280_humidity;BME280_pressure;Samples;Min_cycle;Max_cycle;Signal;HPM_P1;HPM_P2
2022/06/22 00:02:24;;;;;;;1778.35;758.63;;;10.80;80.80;;;;;;4965772;28;20085;-67
2022/06/22 00:05:16;;;;;;;1811.15;771.22;;;10.70;81.00;;;;;;4964450;28;20047;-66
2022/06/22 00:07:53;;;;;;;1598.15;700.83;;;10.70;80.90;;;;;;4964155;28;20045;-66
2022/06/22 00:10:32;;;;;;;1605.72;500.17;;;10.60;80.60;;;;;;4963841;28;20047;-66
2022/06/22 00:13:00;;;;;;;1999.90;999.90;;;10.60;80.80;;;;;;4956359;28;20125;-66
2022/06/22 00:15:31;;;;;;;1767.85;594.55;;;10.50;81.30;;;;;;4950064;28;20487;-66
2022/06/22 00:17:57;;;;;;;1999.90;999.90;;;10.50;81.70;;;;;;4964525;28;20039;-66
2022/06/22 00:20:30;;;;;;;1713.97;624.57;;;10.50;81.80;;;;;;4949063;28;20042;-66
2022/06/22 00:23:23;;;;;;;1526.75;611.67;;;10.40;81.70;;;;;;4968707;28;20042;-66
2022/06/22 00:25:49;;;;;;;1778.65;781.42;;;10.40;81.60;;;;;;4969730;28;20030;-66
2022/06/22 00:28:55;;;;;;;1414.90;505.67;;;10.40;82.10;;;;;;4968758;28;20054;-66
2022/06/22 00:31:30;;;;;;;;;;;10.40;82.30;;;;;;4969175;28;20312;-66
2022/06/22 00:34:11;;;;;;;1801.45;728.85;;;10.30;82.60;;;;;;4969824;28;19925;-66
2022/06/22 00:36:48;;;;;;;1693.13;695.70;;;10.30;82.30;;;;;;4968187;28;20515;-66
2022/06/22 00:39:13;;;;;;;1525.65;481.35;;;10.30;82.30;;;;;;4968691;28;20038;-66
2022/06/22 00:41:39;;;;;;;1658.20;745.67;;;10.30;82.20;;;;;;4968935;28;20498;-66
2022/06/22 00:44:08;;;;;;;1999.90;999.90;;;10.30;82.30;;;;;;4968809;28;20097;-67
2022/06/22 00:46:40;;;;;;;1335.65;350.77;;;10.30;82.80;;;;;;4967751;28;20035;-67
2022/06/22 00:49:16;;;;;;;1630.20;506.88;;;10.30;83.30;;;;;;4952468;28;20045;-67
2022/06/22 00:51:43;;;;;;;1999.90;999.90;;;10.30;82.80;;;;;;4967948;28;20109;-67
2022/06/22 00:54:17;;;;;;;1565.05;606.70;;;10.40;82.80;;;;;;4967614;28;20042;-67
2022/06/22 00:57:12;;;;;;;1999.90;999.90;;;10.40;82.80;;;;;;4967334;28;20447;-67
2022/06/22 00:59:53;;;;;;;1999.90;999.90;;;10.40;83.10;;;;;;4966892;28;20043;-67
2022/06/22 01:02:37;;;;;;;1304.07;283.85;;;10.40;83.50;;;;;;4967082;28;20042;-66
2022/06/22 01:05:27;;;;;;;1332.93;799.42;;;10.30;83.10;;;;;;4968335;28;20074;-66
2022/06/22 01:08:16;;;;;;;1682.68;876.28;;;10.30;83.00;;;;;;4949389;28;20102;-66
2022/06/22 01:10:53;;;;;;;1789.40;978.65;;;10.30;82.70;;;;;;4948423;28;20519;-66
2022/06/22 01:13:42;;;;;;;1999.90;999.90;;;10.20;82.60;;;;;;4968540;28;20085;-66
2022/06/22 01:16:22;;;;;;;1577.70;947.28;;;10.20;82.40;;;;;;4967830;28;20474;-66
2022/06/22 01:18:58;;;;;;;1683.40;807.95;;;10.10;82.40;;;;;;4946406;28;20050;-66
2022/06/22 01:21:30;;;;;;;1212.70;732.85;;;10.10;82.30;;;;;;4952519;28;20046;-66
2022/06/22 01:24:11;;;;;;;1678.95;873.50;;;10.00;82.50;;;;;;4968053;28;20049;-66
2022/06/22 01:26:43;;;;;;;1699.95;793.40;;;10.00;82.50;;;;;;4951333;28;20057;-66
2022/06/22 01:29:25;;;;;;;1669.50;847.42;;;9.90;82.90;;;;;;4967455;28;20034;-66
2022/06/22 01:32:03;;;;;;;1874.35;888.83;;;9.90;83.00;;;;;;4967971;28;20049;-66
2022/06/22 01:34:35;;;;;;;1698.00;794.15;;;9.90;83.10;;;;;;4967395;28;20109;-66
2022/06/22 01:37:06;;;;;;;1752.13;856.15;;;9.80;83.20;;;;;;4965760;28;20117;-66
2022/06/22 01:39:32;;;;;;;1416.25;596.08;;;9.80;83.10;;;;;;4952138;28;20031;-66
2022/06/22 01:42:05;;;;;;;1759.32;794.80;;;9.70;83.10;;;;;;4967741;28;20407;-66
2022/06/22 01:44:43;;;;;;;1749.50;747.47;;;9.70;83.00;;;;;;4952265;28;20484;-66
2022/06/22 01:47:33;;;;;;;1756.63;818.17;;;9.70;84.40;;;;;;4951335;28;20664;-66
2022/06/22 01:50:02;;;;;;;1380.50;356.92;;;9.60;84.30;;;;;;4967336;28;20352;-66
2022/06/22 01:52:47;;;;;;;1805.03;731.00;;;9.60;84.10;;;;;;4968196;28;20582;-66
2022/06/22 01:55:31;;;;;;;1851.93;850.80;;;9.50;84.10;;;;;;4965832;28;20415;-66
2022/06/22 01:58:08;;;;;;;1265.22;560.13;;;9.50;83.90;;;;;;4964718;28;20549;-66
2022/06/22 02:00:34;;;;;;;1999.90;999.90;;;9.40;83.60;;;;;;4948847;28;20113;-66
2022/06/22 02:03:36;;;;;;;1537.93;579.00;;;9.40;83.50;;;;;;4935446;28;20039;-66
2022/06/22 02:09:14;;;;;;;1776.10;877.88;;;9.30;83.70;;;;;;4965720;28;20109;-66
2022/06/22 02:11:47;;;;;;;1797.75;811.60;;;9.30;84.00;;;;;;4967907;28;20556;-66
2022/06/22 02:14:19;;;;;;;1826.18;920.53;;;9.30;84.00;;;;;;4946974;28;20051;-66
2022/06/22 02:17:01;;;;;;;1873.72;876.42;;;9.20;83.90;;;;;;4967143;28;20129;-66
2022/06/22 02:19:28;;;;;;;1872.88;932.15;;;9.20;84.20;;;;;;4965910;28;20052;-66
2022/06/22 02:21:57;;;;;;;1518.30;742.75;;;9.20;84.70;;;;;;4965964;28;20031;-66
2022/06/22 02:24:38;;;;;;;1761.75;861.08;;;9.10;84.30;;;;;;4947946;29;20036;-66
2022/06/22 02:27:07;;;;;;;1451.65;792.83;;;9.10;84.10;;;;;;4964544;28;20054;-66
2022/06/22 02:29:46;;;;;;;1608.88;867.63;;;9.00;84.00;;;;;;4967866;28;20507;-66
2022/06/22 02:32:18;;;;;;;1531.43;844.75;;;9.00;84.90;;;;;;4950180;28;20084;-66
2022/06/22 02:34:48;;;;;;;1756.53;876.70;;;9.00;84.90;;;;;;4967520;28;20399;-66
2022/06/22 02:37:17;;;;;;;1363.88;710.53;;;8.90;85.10;;;;;;4965091;28;20043;-66
2022/06/22 02:39:51;;;;;;;1647.55;893.42;;;8.90;84.70;;;;;;4966122;28;20042;-66
2022/06/22 02:45:03;;;;;;;1999.90;999.90;;;8.80;84.80;;;;;;4965568;28;20046;-66
2022/06/22 02:47:51;;;;;;;1517.18;489.73;;;8.80;84.40;;;;;;4965246;28;20054;-66
2022/06/22 02:50:43;;;;;;;1118.85;300.83;;;8.80;84.20;;;;;;4967071;28;20078;-66
2022/06/22 02:53:24;;;;;;;1999.90;999.90;;;8.80;84.10;;;;;;4946983;28;20483;-66
2022/06/22 02:55:52;;;;;;;1553.63;655.35;;;8.80;84.10;;;;;;4950559;28;20046;-66
2022/06/22 02:58:32;;;;;;;1999.90;999.90;;;8.80;84.10;;;;;;4965132;28;20364;-66
2022/06/22 03:01:12;;;;;;;1999.90;999.90;;;8.90;84.20;;;;;;4966169;28;20031;-66
2022/06/22 03:03:41;;;;;;;1999.90;999.90;;;8.80;84.00;;;;;;4945328;29;20043;-66
2022/06/22 03:06:10;;;;;;;1557.95;653.47;;;8.80;83.90;;;;;;4959855;28;20074;-66
2022/06/22 03:08:36;;;;;;;1698.20;543.28;;;8.80;83.70;;;;;;4963955;28;20129;-66
2022/06/22 03:11:05;;;;;;;1356.57;590.17;;;8.80;83.70;;;;;;4949069;28;20063;-66
2022/06/22 03:13:45;;;;;;;1209.68;554.33;;;8.80;83.50;;;;;;4965882;28;20415;-66
2022/06/22 03:16:29;;;;;;;1491.57;610.88;;;8.90;83.70;;;;;;4963433;28;20486;-66
2022/06/22 03:18:58;;;;;;;1441.68;670.60;;;8.90;83.60;;;;;;4947457;28;20055;-66
2022/06/22 03:21:23;;;;;;;1503.43;798.17;;;8.90;83.70;;;;;;4959377;28;20547;-66
2022/06/22 03:23:54;;;;;;;1516.67;844.87;;;8.90;83.60;;;;;;4966438;28;20051;-66
2022/06/22 03:26:43;;;;;;;1432.40;772.28;;;8.90;83.60;;;;;;4965609;28;20042;-66
2022/06/22 03:29:22;;;;;;;1330.15;701.90;;;8.90;84.90;;;;;;4966106;28;20050;-66
2022/06/22 03:32:02;;;;;;;1475.00;832.70;;;8.90;85.20;;;;;;4965682;28;20050;-66
2022/06/22 03:34:42;;;;;;;1485.53;784.63;;;8.90;85.10;;;;;;4966196;28;20041;-66
2022/06/22 03:37:24;;;;;;;1442.38;759.22;;;8.90;85.10;;;;;;4964141;28;20047;-66
2022/06/22 03:39:58;;;;;;;1544.07;856.80;;;8.90;84.80;;;;;;4961663;28;20046;-66
2022/06/22 03:43:02;;;;;;;1481.63;831.55;;;8.90;85.20;;;;;;4965816;28;20061;-66
2022/06/22 03:45:33;;;;;;;1659.03;953.17;;;8.90;85.60;;;;;;4953934;28;20054;-66
2022/06/22 03:48:19;;;;;;;1467.68;815.60;;;9.00;85.60;;;;;;4948565;28;20073;-66
2022/06/22 03:50:47;;;;;;;1599.10;645.92;;;9.10;85.30;;;;;;4965705;28;20322;-66
2022/06/22 03:53:21;;;;;;;1673.03;728.38;;;9.10;85.80;;;;;;4965050;28;20133;-66
2022/06/22 03:55:50;;;;;;;1536.32;774.85;;;9.20;85.80;;;;;;4966194;28;20138;-66
2022/06/22 03:58:16;;;;;;;1459.88;888.67;;;9.30;85.80;;;;;;4969324;28;20050;-66
2022/06/22 04:00:45;;;;;;;1671.55;946.40;;;9.40;85.70;;;;;;4953891;28;20047;-66
2022/06/22 04:03:13;;;;;;;1523.57;873.72;;;9.40;85.50;;;;;;4963860;28;20425;-66
2022/06/22 04:05:49;;;;;;;1658.00;654.53;;;9.50;85.60;;;;;;4963493;28;20130;-66
2022/06/22 04:08:31;;;;;;;1779.13;999.90;;;9.60;85.70;;;;;;4947980;28;20137;-66
2022/06/22 04:11:12;;;;;;;1699.68;896.60;;;9.70;85.50;;;;;;4952193;28;20104;-66
2022/06/22 04:13:51;;;;;;;1412.00;392.83;;;9.80;85.50;;;;;;4970387;28;20051;-66
2022/06/22 04:16:20;;;;;;;1164.95;360.15;;;9.90;85.70;;;;;;4967977;28;20189;-66
2022/06/22 04:18:48;;;;;;;1999.90;999.90;;;10.10;85.70;;;;;;4968929;28;20047;-66
2022/06/22 04:21:22;;;;;;;1446.65;616.60;;;10.20;85.80;;;;;;4969304;28;20038;-66
2022/06/22 04:23:55;;;;;;;1694.80;827.65;;;10.30;85.40;;;;;;4969677;28;20126;-66
2022/06/22 04:26:24;;;;;;;1553.03;824.38;;;10.50;85.60;;;;;;4968739;28;20042;-66
2022/06/22 04:28:57;;;;;;;1822.75;994.45;;;10.60;85.10;;;;;;4967140;28;20109;-66
2022/06/22 04:31:41;;;;;;;1479.50;760.35;;;10.80;84.80;;;;;;4967407;28;20133;-66
2022/06/22 04:34:35;;;;;;;1391.30;721.80;;;10.90;84.60;;;;;;4956834;28;20049;-67
2022/06/22 04:37:02;;;;;;;1777.85;928.72;;;11.30;85.60;;;;;;4967438;28;20051;-67
2022/06/22 04:39:42;;;;;;;1938.80;993.80;;;12.30;85.80;;;;;;4968261;28;20039;-67
2022/06/22 04:42:10;;;;;;;1967.30;999.90;;;13.60;83.70;;;;;;4967702;28;20082;-67
2022/06/22 04:44:46;;;;;;;1999.90;781.58;;;14.80;80.70;;;;;;4968615;28;20035;-67
2022/06/22 04:47:27;;;;;;;1994.38;709.28;;;15.90;77.10;;;;;;4958685;28;20046;-67
2022/06/22 04:50:07;;;;;;;1999.90;849.35;;;16.90;73.60;;;;;;4967645;28;20058;-67
2022/06/22 04:52:47;;;;;;;1999.90;751.07;;;17.80;70.10;;;;;;4962149;28;20162;-67
2022/06/22 04:55:19;;;;;;;1999.90;734.80;;;18.50;68.60;;;;;;4950187;28;20302;-67
2022/06/22 04:57:48;;;;;;;1999.90;673.50;;;19.10;66.50;;;;;;4964394;28;20310;-67
2022/06/22 05:00:20;;;;;;;1999.90;820.97;;;19.70;64.50;;;;;;4967421;28;20298;-67
2022/06/22 05:02:49;;;;;;;1999.90;866.43;;;20.10;63.10;;;;;;4967817;28;20314;-67
2022/06/22 05:05:17;;;;;;;1999.90;916.77;;;20.40;61.90;;;;;;4967017;28;20305;-67
2022/06/22 05:07:54;;;;;;;1999.90;999.90;;;20.70;61.70;;;;;;4967137;28;20306;-67
2022/06/22 05:10:38;;;;;;;1999.90;923.87;;;21.20;61.00;;;;;;4968841;28;20402;-67
2022/06/22 05:13:10;;;;;;;1999.90;999.90;;;21.60;59.30;;;;;;4968256;28;20310;-67
2022/06/22 05:15:39;;;;;;;1999.90;999.90;;;22.10;58.30;;;;;;4965375;28;20309;-67
2022/06/22 05:18:13;;;;;;;1999.90;933.33;;;22.30;57.50;;;;;;4968354;28;20314;-67
2022/06/22 05:20:51;;;;;;;1999.90;999.90;;;22.70;56.40;;;;;;4968364;28;20881;-67
2022/06/22 05:23:19;;;;;;;1999.90;867.97;;;22.90;55.00;;;;;;4968273;28;20306;-67
2022/06/22 05:25:48;;;;;;;1999.90;878.73;;;23.00;55.50;;;;;;4951888;28;20298;-67
2022/06/22 05:28:21;;;;;;;1999.90;657.97;;;23.20;55.10;;;;;;4952386;28;20794;-67
2022/06/22 05:30:56;;;;;;;1999.90;757.30;;;23.30;54.40;;;;;;4956607;28;20302;-67
2022/06/22 05:33:25;;;;;;;1999.90;923.60;;;23.50;54.00;;;;;;4966085;28;20302;-67
2022/06/22 05:36:05;;;;;;;1999.90;718.23;;;23.70;53.30;;;;;;4946935;29;20299;-67
2022/06/22 05:38:35;;;;;;;1999.90;974.33;;;23.80;52.20;;;;;;4948543;28;20667;-67
2022/06/22 05:41:04;;;;;;;1999.90;999.90;;;24.00;52.60;;;;;;4965344;28;20353;-67
2022/06/22 05:43:32;;;;;;;1999.90;999.90;;;24.10;52.00;;;;;;4964554;28;20337;-68
2022/06/22 05:46:02;;;;;;;1999.90;999.90;;;24.10;51.60;;;;;;4951941;28;20795;-68
2022/06/22 05:48:31;;;;;;;1999.90;999.90;;;24.20;51.60;;;;;;4966151;28;20453;-68
2022/06/22 05:51:05;;;;;;;1999.90;999.90;;;24.10;51.70;;;;;;4966796;28;20783;-67
2022/06/22 05:54:04;;;;;;;1999.90;999.90;;;24.10;51.70;;;;;;4956640;28;20050;-67
2022/06/22 05:56:37;;;;;;;1999.90;999.90;;;24.40;51.00;;;;;;4908325;28;20047;-67
2022/06/22 05:59:07;;;;;;;1999.90;999.90;;;24.60;51.30;;;;;;4966253;28;20490;-67
2022/06/22 06:01:38;;;;;;;1999.90;999.90;;;24.50;51.40;;;;;;4964456;28;20039;-67
2022/06/22 06:04:16;;;;;;;1999.90;999.90;;;24.70;51.10;;;;;;4961031;28;20077;-67
2022/06/22 06:06:43;;;;;;;1999.90;999.90;;;24.70;50.70;;;;;;4940141;28;20166;-67
2022/06/22 06:09:19;;;;;;;1999.90;999.90;;;24.80;51.00;;;;;;4962502;28;20122;-67
2022/06/22 06:12:14;;;;;;;1999.90;999.90;;;24.80;50.70;;;;;;4943509;28;20759;-67
2022/06/22 06:14:45;;;;;;;1999.90;999.90;;;24.70;50.70;;;;;;4967949;28;20153;-67
2022/06/22 06:17:34;;;;;;;1999.90;999.90;;;24.60;50.80;;;;;;4963393;28;20278;-67
2022/06/22 06:20:02;;;;;;;1999.90;999.90;;;24.60;50.70;;;;;;4940712;28;20603;-67
2022/06/22 06:22:30;;;;;;;1999.90;999.90;;;24.70;51.10;;;;;;4949388;28;20473;-67
2022/06/22 06:27:58;;;;;;;1999.90;999.90;;;24.70;50.70;;;;;;4957853;28;20474;-67
2022/06/22 06:30:49;;;;;;;1999.90;999.90;;;24.80;50.10;;;;;;4967224;28;20506;-67
2022/06/22 06:33:31;;;;;;;1999.90;999.90;;;24.60;49.90;;;;;;4943948;28;20051;-67
2022/06/22 06:36:17;;;;;;;1999.90;999.90;;;24.40;50.90;;;;;;4936270;28;20054;-67
2022/06/22 06:38:51;;;;;;;1999.90;999.90;;;24.30;50.90;;;;;;4960065;28;20086;-67
2022/06/22 06:41:30;;;;;;;1999.90;999.90;;;24.30;51.00;;;;;;4960619;28;20503;-67
2022/06/22 06:44:10;;;;;;;1999.90;999.90;;;24.20;50.80;;;;;;4956010;28;20050;-67
2022/06/22 06:46:51;;;;;;;1999.90;999.90;;;24.00;51.30;;;;;;4964121;28;20051;-67
2022/06/22 06:49:38;;;;;;;1999.90;999.90;;;23.80;51.70;;;;;;4965346;28;20038;-67
2022/06/22 06:52:06;;;;;;;1999.90;999.90;;;23.70;52.20;;;;;;4964935;28;20039;-68
2022/06/22 06:54:50;;;;;;;1999.90;999.90;;;23.40;52.80;;;;;;4948735;28;20511;-68
2022/06/22 06:57:20;;;;;;;1999.90;999.90;;;23.30;53.00;;;;;;4967136;28;20542;-67
2022/06/22 06:59:54;;;;;;;1999.90;999.90;;;23.10;53.20;;;;;;4963575;28;20047;-67
2022/06/22 07:02:35;;;;;;;1999.90;999.90;;;22.90;53.80;;;;;;4959149;28;20366;-68
2022/06/22 07:05:08;;;;;;;1999.90;999.90;;;22.50;54.20;;;;;;4961933;28;20039;-68
2022/06/22 07:07:45;;;;;;;1999.90;999.90;;;22.20;55.40;;;;;;4944550;28;20129;-68
2022/06/22 07:10:41;;;;;;;1999.90;999.90;;;21.90;56.00;;;;;;4966261;28;20420;-67
2022/06/22 07:13:15;;;;;;;1999.90;999.90;;;21.70;56.30;;;;;;4945793;28;20149;-67
2022/06/22 07:15:46;;;;;;;1999.90;999.90;;;21.20;57.90;;;;;;4948429;28;20054;-68
2022/06/22 07:18:30;;;;;;;1999.90;999.90;;;21.00;58.50;;;;;;4965523;28;20579;-68
2022/06/22 07:21:26;;;;;;;1999.90;999.90;;;20.90;58.00;;;;;;4953677;28;20047;-68
2022/06/22 07:24:10;;;;;;;1999.90;999.90;;;20.60;57.50;;;;;;4959699;28;20090;-68
2022/06/22 07:26:48;;;;;;;1999.90;999.90;;;20.30;58.00;;;;;;4949164;28;20058;-68
2022/06/22 07:29:27;;;;;;;1999.90;999.90;;;20.20;58.80;;;;;;4966902;28;20133;-68
2022/06/22 07:32:17;;;;;;;1999.90;999.90;;;20.00;58.70;;;;;;4965082;28;20047;-68
2022/06/22 07:34:59;;;;;;;1999.90;999.90;;;19.80;59.30;;;;;;4948547;28;20077;-68
2022/06/22 07:37:34;;;;;;;1999.90;999.90;;;19.70;58.80;;;;;;4964653;28;20070;-68
2022/06/22 07:40:14;;;;;;;1999.90;999.90;;;19.60;59.30;;;;;;4965355;28;20042;-68
2022/06/22 07:42:40;;;;;;;1999.90;999.90;;;19.60;59.70;;;;;;4966574;28;20112;-68
2022/06/22 07:45:12;;;;;;;1999.90;999.90;;;19.60;59.40;;;;;;4948998;28;20442;-68
2022/06/22 07:47:51;;;;;;;1999.90;999.90;;;19.60;59.40;;;;;;4966119;28;20090;-68
2022/06/22 07:50:24;;;;;;;1999.90;999.90;;;19.60;57.90;;;;;;4967034;28;20050;-68
2022/06/22 07:52:55;;;;;;;1999.90;999.90;;;19.50;57.70;;;;;;4964803;28;20053;-68
2022/06/22 07:55:36;;;;;;;1999.90;999.90;;;19.60;58.70;;;;;;4940271;28;20043;-68
2022/06/22 07:58:13;;;;;;;1999.90;999.90;;;19.70;59.20;;;;;;4948263;28;20556;-68
2022/06/22 08:00:41;;;;;;;1999.90;999.90;;;19.80;59.20;;;;;;4966337;28;20121;-68
2022/06/22 08:03:46;;;;;;;1999.90;999.90;;;19.90;58.20;;;;;;4964138;28;20043;-68
2022/06/22 08:06:24;;;;;;;1999.90;999.90;;;20.00;56.60;;;;;;4964855;28;20097;-68
2022/06/22 08:08:57;;;;;;;1999.90;999.90;;;20.10;56.00;;;;;;4963974;28;20069;-68
2022/06/22 08:11:39;;;;;;;1999.90;999.90;;;20.20;56.00;;;;;;4966278;28;20364;-68
2022/06/22 08:14:34;;;;;;;1999.90;999.90;;;20.20;56.10;;;;;;4950303;28;20050;-68
2022/06/22 08:17:03;;;;;;;1999.90;999.90;;;20.20;54.80;;;;;;4963129;28;20049;-68
2022/06/22 08:19:30;;;;;;;1999.90;999.90;;;20.30;54.10;;;;;;4948894;28;20133;-68
2022/06/22 08:22:00;;;;;;;1999.90;999.90;;;20.30;53.30;;;;;;4965590;28;20047;-68
2022/06/22 08:24:29;;;;;;;1999.90;999.90;;;20.40;54.10;;;;;;4965653;28;20039;-68
2022/06/22 08:26:58;;;;;;;1999.90;999.90;;;20.50;54.90;;;;;;4949151;28;20558;-68
2022/06/22 08:29:24;;;;;;;1999.90;999.90;;;20.60;54.20;;;;;;4950045;28;20035;-68
2022/06/22 08:31:58;;;;;;;1999.90;999.90;;;20.60;53.50;;;;;;4933387;28;20173;-68
2022/06/22 08:34:32;;;;;;;1999.90;999.90;;;20.60;53.40;;;;;;4947070;29;20043;-68
2022/06/22 08:37:06;;;;;;;1978.03;999.90;;;20.70;54.60;;;;;;4947372;28;20376;-68
2022/06/22 08:39:40;;;;;;;1999.90;999.90;;;20.80;55.00;;;;;;4958545;28;20042;-68
2022/06/22 08:42:15;;;;;;;1999.90;999.90;;;20.90;53.70;;;;;;4965381;28;20157;-68
2022/06/22 08:44:43;;;;;;;1991.72;999.90;;;21.00;53.70;;;;;;4967829;28;20216;-68
2022/06/22 08:47:16;;;;;;;1999.90;999.90;;;21.10;53.50;;;;;;4968119;28;20163;-68
2022/06/22 08:50:03;;;;;;;1999.90;999.90;;;21.10;53.10;;;;;;4967867;28;20059;-68
2022/06/22 08:52:35;;;;;;;1938.83;999.90;;;21.30;53.70;;;;;;4969430;28;20047;-68
2022/06/22 08:55:26;;;;;;;1999.90;999.90;;;21.50;53.30;;;;;;4967510;28;20106;-68
2022/06/22 08:58:07;;;;;;;1999.90;999.90;;;21.50;52.90;;;;;;4968825;28;20101;-68
2022/06/22 09:00:50;;;;;;;1999.90;999.90;;;21.60;53.20;;;;;;4967403;28;20123;-68
2022/06/22 09:03:51;;;;;;;1999.90;999.90;;;21.70;52.50;;;;;;4969524;28;20038;-68
2022/06/22 09:06:22;;;;;;;1999.90;999.90;;;21.70;50.70;;;;;;4950364;28;20038;-68
2022/06/22 09:09:26;;;;;;;1999.90;999.90;;;21.70;51.00;;;;;;4969054;28;20039;-69
2022/06/22 09:12:36;;;;;;;1999.90;999.90;;;21.70;51.70;;;;;;4945844;28;20064;-69
2022/06/22 09:15:22;;;;;;;1999.90;999.90;;;21.80;51.60;;;;;;4948664;28;20058;-69
2022/06/22 09:18:01;;;;;;;1999.90;999.90;;;21.80;49.80;;;;;;4951543;28;20050;-69
2022/06/22 09:20:50;;;;;;;1999.90;999.90;;;21.90;49.50;;;;;;4939738;28;20530;-69
2022/06/22 09:23:33;;;;;;;1999.90;999.90;;;21.80;50.00;;;;;;4969898;28;20523;-69
2022/06/22 09:26:08;;;;;;;1999.90;999.90;;;21.90;49.70;;;;;;4949270;28;20039;-69
2022/06/22 09:28:48;;;;;;;1999.90;999.90;;;21.90;49.70;;;;;;4968031;28;20055;-69
2022/06/22 09:31:26;;;;;;;1999.90;999.90;;;22.10;49.90;;;;;;4969125;28;20046;-69
2022/06/22 09:34:06;;;;;;;1999.90;999.90;;;22.20;49.60;;;;;;4967773;28;20046;-69
2022/06/22 09:36:34;;;;;;;1999.90;999.90;;;22.30;49.50;;;;;;4941594;28;20047;-69
2022/06/22 09:39:28;;;;;;;1999.90;999.90;;;22.50;48.60;;;;;;4952381;28;20043;-67
2022/06/22 09:42:25;;;;;;;1999.90;999.90;;;22.70;48.20;;;;;;4968484;28;20054;-68
2022/06/22 09:45:13;;;;;;;1999.90;999.90;;;22.70;47.60;;;;;;4967746;28;20038;-67
2022/06/22 09:47:56;;;;;;;1999.90;999.90;;;22.90;48.10;;;;;;4951140;28;20051;-67
2022/06/22 09:50:50;;;;;;;1999.90;999.90;;;22.90;49.10;;;;;;4952076;28;20047;-67
2022/06/22 09:53:37;;;;;;;1999.90;999.90;;;22.90;49.50;;;;;;4966583;28;20074;-67
2022/06/22 09:56:22;;;;;;;1999.90;999.90;;;23.10;49.30;;;;;;4949998;28;20143;-67
2022/06/22 09:59:19;;;;;;;1999.90;999.90;;;23.20;49.10;;;;;;4968168;28;20547;-67
2022/06/22 10:01:50;;;;;;;1999.90;999.90;;;23.20;50.70;;;;;;4968292;28;20055;-67
2022/06/22 10:04:47;;;;;;;1999.90;999.90;;;23.40;50.30;;;;;;4950726;28;20097;-68
2022/06/22 10:07:51;;;;;;;1999.90;999.90;;;23.40;48.90;;;;;;4949303;28;20050;-68
2022/06/22 10:10:29;;;;;;;1999.90;999.90;;;23.40;49.80;;;;;;4966918;28;20499;-68
2022/06/22 10:13:07;;;;;;;1999.90;999.90;;;23.50;49.10;;;;;;4964978;28;20569;-68
2022/06/22 10:16:06;;;;;;;1999.90;999.90;;;23.50;48.80;;;;;;4948380;28;20086;-68
2022/06/22 10:18:52;;;;;;;1999.90;999.90;;;23.60;49.10;;;;;;4967837;28;20043;-68
2022/06/22 10:21:42;;;;;;;1999.90;999.90;;;23.60;49.60;;;;;;4956093;28;20058;-68
2022/06/22 10:24:23;;;;;;;1999.90;999.90;;;23.70;49.10;;;;;;4965540;28;20085;-68
2022/06/22 10:26:57;;;;;;;1999.90;999.90;;;23.60;47.80;;;;;;4967129;28;20501;-68
2022/06/22 10:29:41;;;;;;;;;;;23.60;48.40;;;;;;4967919;28;20042;-69
2022/06/22 10:32:33;;;;;;;1999.90;999.90;;;23.40;46.80;;;;;;4967170;28;19928;-68
2022/06/22 10:35:22;;;;;;;1999.90;999.90;;;23.50;48.60;;;;;;4951134;28;20050;-68
2022/06/22 10:38:03;;;;;;;1999.90;999.90;;;23.40;46.40;;;;;;4944446;28;20474;-68
2022/06/22 10:47:19;;;;;;;1999.90;668.63;;;23.80;47.80;;;;;;4964605;28;20527;-69
2022/06/22 10:50:05;;;;;;;1999.90;511.87;;;23.90;47.00;;;;;;4966900;28;20363;-69
2022/06/22 10:52:46;;;;;;;1999.90;546.77;;;23.90;47.10;;;;;;4951427;28;20345;-69
2022/06/22 10:55:19;;;;;;;1999.90;494.97;;;24.00;47.50;;;;;;4950572;28;20553;-69
2022/06/22 10:58:19;;;;;;;1999.90;525.23;;;24.10;47.00;;;;;;4950781;28;20146;-69
2022/06/22 11:00:53;;;;;;;1999.90;531.67;;;24.20;45.90;;;;;;4925467;28;20042;-69
2022/06/22 11:03:25;;;;;;;1999.90;720.80;;;24.30;46.10;;;;;;4965856;28;20502;-69
2022/06/22 11:06:01;;;;;;;1999.90;582.90;;;24.30;46.20;;;;;;4964397;28;20524;-69
2022/06/22 11:08:46;;;;;;;1999.90;554.30;;;24.30;46.30;;;;;;4966805;28;20113;-69
2022/06/22 11:11:31;;;;;;;1999.90;511.42;;;24.40;45.90;;;;;;4965353;28;20311;-69
2022/06/22 11:14:09;;;;;;;1999.90;527.83;;;24.50;47.20;;;;;;4948453;28;20189;-69
2022/06/22 11:16:54;;;;;;;1999.90;573.83;;;24.60;45.70;;;;;;4964134;28;20117;-69
2022/06/22 11:19:29;;;;;;;1999.90;462.95;;;24.50;46.10;;;;;;4945903;28;20043;-69
2022/06/22 11:22:16;;;;;;;1999.90;469.97;;;24.40;46.90;;;;;;4950593;28;20362;-69
2022/06/22 11:25:13;;;;;;;1999.90;548.10;;;24.60;48.30;;;;;;4957662;28;20047;-69
2022/06/22 11:31:04;;;;;;;1999.90;513.67;;;24.70;47.00;;;;;;4963864;28;20110;-69
2022/06/22 11:34:08;;;;;;;1999.90;505.97;;;24.70;47.20;;;;;;4966710;28;20074;-69
2022/06/22 11:36:57;;;;;;;1999.90;534.03;;;24.80;47.70;;;;;;4943292;28;20047;-69
2022/06/22 11:39:54;;;;;;;1999.90;493.27;;;24.90;46.80;;;;;;4927612;28;20093;-69
2022/06/22 11:42:53;;;;;;;1999.90;562.23;;;24.90;47.30;;;;;;4965810;28;20039;-69
2022/06/22 11:45:51;;;;;;;1999.90;539.07;;;25.10;46.80;;;;;;4959689;28;20047;-69
2022/06/22 11:48:20;;;;;;;1999.90;485.07;;;25.30;47.60;;;;;;4948376;28;20083;-69
2022/06/22 11:51:16;;;;;;;1999.90;447.87;;;25.50;47.20;;;;;;4962661;28;20093;-69
2022/06/22 11:54:08;;;;;;;1999.90;460.57;;;25.70;45.60;;;;;;4966628;28;20086;-69
2022/06/22 11:56:37;;;;;;;1999.90;540.20;;;25.70;46.30;;;;;;4973337;28;20082;-69
2022/06/22 11:59:36;;;;;;;1999.90;499.73;;;25.70;46.00;;;;;;4950440;28;20259;-69
2022/06/22 12:02:30;;;;;;;1999.90;561.53;;;25.70;46.40;;;;;;4951654;28;20047;-69
2022/06/22 12:05:18;;;;;;;1999.90;555.57;;;25.50;46.60;;;;;;4961319;28;20043;-69
2022/06/22 12:07:50;;;;;;;1999.90;540.00;;;25.50;45.80;;;;;;4935920;28;20399;-69
2022/06/22 12:10:31;;;;;;;1999.90;603.97;;;25.30;46.00;;;;;;4967594;28;20169;-69
2022/06/22 12:13:11;;;;;;;1999.90;512.97;;;25.50;46.30;;;;;;4962651;28;20142;-69
2022/06/22 12:15:55;;;;;;;1999.90;582.67;;;25.60;46.70;;;;;;4959894;28;20047;-69
2022/06/22 12:18:37;;;;;;;1999.90;508.73;;;25.90;45.50;;;;;;4960526;28;20551;-69
2022/06/22 12:21:09;;;;;;;1999.90;531.87;;;26.10;45.70;;;;;;4968463;28;20038;-69
2022/06/22 12:23:40;;;;;;;1999.90;527.47;;;26.20;43.90;;;;;;4953297;28;20415;-67
2022/06/22 12:26:36;;;;;;;1999.90;519.87;;;26.20;43.60;;;;;;4952852;28;20043;-67
2022/06/22 12:29:36;;;;;;;1999.90;559.30;;;26.30;43.30;;;;;;4967871;28;20050;-67
2022/06/22 12:32:20;;;;;;;1999.90;562.30;;;26.20;44.30;;;;;;4953528;28;20039;-67
2022/06/22 12:35:05;;;;;;;1999.90;554.63;;;26.20;44.20;;;;;;4970312;28;20046;-68
2022/06/22 12:37:40;;;;;;;1999.90;567.97;;;26.10;44.30;;;;;;4969217;28;20051;-68
2022/06/22 12:40:29;;;;;;;1999.90;477.27;;;26.10;44.90;;;;;;4966856;28;20042;-68
2022/06/22 12:43:15;;;;;;;1999.90;511.50;;;26.10;44.80;;;;;;4966781;28;20043;-68
2022/06/22 12:45:46;;;;;;;1999.90;561.40;;;26.10;44.50;;;;;;4949286;28;20586;-68
2022/06/22 12:48:44;;;;;;;1999.90;582.53;;;26.00;44.00;;;;;;4949880;28;20050;-68
2022/06/22 12:51:38;;;;;;;1999.90;601.67;;;25.90;44.00;;;;;;4953485;28;20108;-68
2022/06/22 12:54:07;;;;;;;1999.90;532.53;;;26.00;44.30;;;;;;4969924;28;20399;-68
2022/06/22 12:56:36;;;;;;;1999.90;534.57;;;26.20;45.50;;;;;;4952907;28;20414;-68
2022/06/22 12:59:10;;;;;;;1999.90;481.03;;;26.40;45.30;;;;;;4965005;28;20043;-68
2022/06/22 13:01:37;;;;;;;1999.90;566.93;;;26.40;44.80;;;;;;4965744;28;20125;-68
2022/06/22 13:04:12;;;;;;;1999.90;576.67;;;26.50;44.50;;;;;;4964810;28;20134;-68
2022/06/22 13:06:42;;;;;;;1999.90;519.07;;;26.50;44.30;;;;;;4964420;28;20126;-68
2022/06/22 13:09:09;;;;;;;1999.90;578.23;;;26.70;45.30;;;;;;4949941;28;20178;-68
2022/06/22 13:11:36;;;;;;;1999.90;505.73;;;26.70;44.80;;;;;;4951213;28;20558;-68
2022/06/22 13:14:31;;;;;;;1999.90;512.20;;;26.80;44.40;;;;;;4944755;28;20050;-68
2022/06/22 13:17:16;;;;;;;1999.90;503.25;;;26.80;43.90;;;;;;4942305;28;20047;-68